Time;durP1;ratioP1;P1;durP2;ratioP2;P2;SDS_P1;SDS_P2;PMS_P1;PMS_P2;Temp;Humidity;BMP_temperature;BMP_pressure;BME280_temperature;BME280_humidity;BME280_pressure;Samples;Min_cycle;Max_cycle;Signal;HPM_P1;HPM_P2
2022/05/18 00:01:08;;;;;;;2;4.9;;;;;;;-133;61.5;65270;;;;
2022/05/18 00:11:08;;;;;;;2;4.9;;;;;;;-133;62.2;65260;;;;
2022/05/18 00:22:09;;;;;;;2.7;5.5;;;;;;;-133;63.1;65270;;;;
2022/05/18 00:32:08;;;;;;;2.7;5.5;;;;;;;-133;65.1;65270;;;;
2022/05/18 00:43:08;;;;;;;2.4;5.6;;;;;;;-133;65.3;65270;;;;
2022/05/18 00:54:08;;;;;;;2.4;5.6;;;;;;;-133;64.4;65270;;;;
2022/05/18 01:04:08;;;;;;;2.4;5.6;;;;;;;-133;64.4;65260;;;;
2022/05/18 01:14:09;;;;;;;1.9;4.5;;;;;;;-133;65.2;65270;;;;
2022/05/18 01:24:08;;;;;;;1.9;4.5;;;;;;;-133;66.3;65270;;;;
2022/05/18 01:35:08;;;;;;;1.9;4.5;;;;;;;-133;67.6;65270;;;;
2022/05/18 01:46:08;;;;;;;2;6;;;;;;;-133;71.7;65270;;;;
2022/05/18 01:56:08;;;;;;;2;6;;;;;;;-133;71.1;65260;;;;
2022/05/18 02:07:08;;;;;;;2;6;;;;;;;-133;71.2;65270;;;;
2022/05/18 02:18:08;;;;;;;2.6;8.7;;;;;;;-133;71.7;65270;;;;
2022/05/18 02:29:08;;;;;;;2.6;8.7;;;;;;;-133;69.8;65270;;;;
2022/05/18 02:39:08;;;;;;;2.6;8.7;;;;;;;-133;68.7;65260;;;;
2022/05/18 02:50:08;;;;;;;2.4;5.4;;;;;;;-133;70;65270;;;;
2022/05/18 03:00:08;;;;;;;2.4;5.4;;;;;;;-133;70.9;65280;;;;
2022/05/18 03:11:09;;;;;;;2.4;5.4;;;;;;;-133;71.5;65270;;;;
2022/05/18 03:32:08;;;;;;;2.5;7.6;;;;;;;-133;73.1;65280;;;;
2022/05/18 03:42:08;;;;;;;1.9;5;;;;;;;-133;72.3;65270;;;;
2022/05/18 03:52:08;;;;;;;1.9;5;;;;;;;-133;73.3;65270;;;;
2022/05/18 04:03:08;;;;;;;1.9;5;;;;;;;-133;73.4;65270;;;;
2022/05/18 04:14:08;;;;;;;2;6.4;;;;;;;-133;73.2;65270;;;;
2022/05/18 04:25:09;;;;;;;2;6.4;;;;;;;-133;73.6;65260;;;;
2022/05/18 04:35:08;;;;;;;2;6.4;;;;;;;-133;71.9;65270;;;;
2022/05/18 04:46:08;;;;;;;2.3;7.6;;;;;;;-133;69.4;65270;;;;
2022/05/18 04:57:08;;;;;;;2.3;7.6;;;;;;;-133;67.6;65270;;;;
2022/05/18 05:08:08;;;;;;;2.3;7.6;;;;;;;-133;65;65260;;;;
2022/05/18 05:18:08;;;;;;;2.7;9.8;;;;;;;-133;62.7;65260;;;;
2022/05/18 05:29:08;;;;;;;2.7;9.8;;;;;;;-133;62.1;65260;;;;
2022/05/18 05:40:08;;;;;;;2.7;9.8;;;;;;;-133;60.7;65260;;;;
2022/05/18 05:51:11;;;;;;;4.5;10;;;;;;;-133;59.1;65260;;;;
2022/05/18 06:01:08;;;;;;;4.5;10;;;;;;;-133;59.3;65260;;;;
2022/05/18 06:12:08;;;;;;;2.9;8.8;;;;;;;-133;57.8;65260;;;;
2022/05/18 06:22:08;;;;;;;2.9;8.8;;;;;;;-133;57.2;65260;;;;
2022/05/18 06:33:10;;;;;;;2.9;8.8;;;;;;;-133;57.1;65260;;;;
2022/05/18 06:44:09;;;;;;;2.7;8.2;;;;;;;-133;54.9;65260;;;;
2022/05/18 06:54:08;;;;;;;2.7;8.2;;;;;;;-133;56.4;65250;;;;
2022/05/18 07:04:09;;;;;;;2.7;8.2;;;;;;;-133;53.3;65250;;;;
2022/05/18 07:15:08;;;;;;;2.4;10;;;;;;;-133;51.8;65260;;;;
2022/05/18 07:25:08;;;;;;;2.4;10;;;;;;;-133;52.3;65250;;;;
2022/05/18 07:36:08;;;;;;;2.4;10;;;;;;;-133;48.5;65250;;;;
2022/05/18 07:47:09;;;;;;;1.9;5.5;;;;;;;-133;47.4;65250;;;;
2022/05/18 07:58:08;;;;;;;1.9;5.5;;;;;;;-133;46.1;65250;;;;
2022/05/18 08:09:08;;;;;;;1.9;5.5;;;;;;;-133;44.7;65250;;;;
2022/05/18 08:20:08;;;;;;;1.7;4.7;;;;;;;-133;44.8;65250;;;;
2022/05/18 08:30:09;;;;;;;1.7;4.7;;;;;;;-133;42.2;65240;;;;
2022/05/18 08:41:08;;;;;;;2;6.5;;;;;;;-133;42.7;65240;;;;
2022/05/18 08:51:08;;;;;;;2;6.5;;;;;;;-133;40.7;65250;;;;
2022/05/18 09:01:08;;;;;;;2;6.5;;;;;;;-133;40.4;65240;;;;
2022/05/18 09:12:08;;;;;;;2.8;8.3;;;;;;;-133;38.6;65240;;;;
2022/05/18 09:22:10;;;;;;;2.8;8.3;;;;;;;-133;40.9;65240;;;;
2022/05/18 09:33:08;;;;;;;2.8;8.3;;;;;;;-133;41.1;65240;;;;
2022/05/18 09:43:10;;;;;;;2.9;6.3;;;;;;;-133;41.4;65240;;;;
2022/05/18 09:53:08;;;;;;;2.9;6.3;;;;;;;-133;42.5;65240;;;;
2022/05/18 10:14:09;;;;;;;2.3;7.2;;;;;;;-133;37;65240;;;;
2022/05/18 10:25:08;;;;;;;2.3;7.2;;;;;;;-133;36.3;65240;;;;
2022/05/18 10:35:09;;;;;;;2.3;7.2;;;;;;;-133;37.7;65240;;;;
2022/05/18 10:46:08;;;;;;;2.7;6.8;;;;;;;-133;37.9;65240;;;;
2022/05/18 10:56:09;;;;;;;2.7;6.8;;;;;;;-133;37.7;65240;;;;
2022/05/18 11:07:09;;;;;;;2.7;6.8;;;;;;;-133;34;65240;;;;
2022/05/18 11:17:08;;;;;;;2.1;7.3;;;;;;;-133;37.1;65240;;;;
2022/05/18 11:27:08;;;;;;;2.1;7.3;;;;;;;-133;32.8;65240;;;;
2022/05/18 11:37:09;;;;;;;2.1;7.3;;;;;;;-133;32.6;65240;;;;
2022/05/18 11:48:10;;;;;;;1.7;4.8;;;;;;;-133;32.2;65240;;;;
2022/05/18 11:58:08;;;;;;;1.7;4.8;;;;;;;-133;32;65240;;;;
2022/05/18 12:09:08;;;;;;;1.7;4.8;;;;;;;-133;32.5;65240;;;;
2022/05/18 12:19:09;;;;;;;1;3.4;;;;;;;-133;31;65240;;;;
2022/05/18 12:30:09;;;;;;;1;3.4;;;;;;;-133;28.1;65240;;;;
2022/05/18 12:41:09;;;;;;;1;3.8;;;;;;;-133;28.9;65230;;;;
2022/05/18 12:52:09;;;;;;;1;3.8;;;;;;;-133;26.9;65240;;;;
2022/05/18 13:03:08;;;;;;;1;3.8;;;;;;;-133;27.9;65240;;;;
2022/05/18 13:14:08;;;;;;;1.2;4.2;;;;;;;-133;30;65240;;;;
2022/05/18 13:24:09;;;;;;;1.2;4.2;;;;;;;-133;29.7;65240;;;;
2022/05/18 13:35:09;;;;;;;1.2;4.2;;;;;;;-133;28.3;65240;;;;
2022/05/18 13:45:09;;;;;;;1.1;4.3;;;;;;;-133;31.1;65240;;;;
2022/05/18 13:56:09;;;;;;;1.1;4.3;;;;;;;-133;27.1;65230;;;;
2022/05/18 14:07:09;;;;;;;1.1;4.3;;;;;;;-133;27.2;65230;;;;
2022/05/18 14:17:09;;;;;;;1.6;4.5;;;;;;;-133;28.2;65230;;;;
2022/05/18 14:28:09;;;;;;;1.6;4.5;;;;;;;-133;27.1;65230;;;;
2022/05/18 14:38:09;;;;;;;1.6;4.5;;;;;;;-133;26.4;65230;;;;
2022/05/18 14:48:09;;;;;;;1.3;4.5;;;;;;;-133;26.1;65230;;;;
2022/05/18 14:58:09;;;;;;;1.3;4.5;;;;;;;-133;28.4;65230;;;;
2022/05/18 15:09:09;;;;;;;1.3;4.5;;;;;;;-133;23;65230;;;;
2022/05/18 15:20:08;;;;;;;1.1;3.9;;;;;;;-133;18.3;65220;;;;
2022/05/18 15:30:09;;;;;;;1.1;3.9;;;;;;;-133;16.5;65220;;;;
2022/05/18 15:40:09;;;;;;;1.1;3.9;;;;;;;-133;16.5;65220;;;;
2022/05/18 15:51:10;;;;;;;0.8;4;;;;;;;-133;16.8;65220;;;;
2022/05/18 16:02:09;;;;;;;0.8;4;;;;;;;-133;15.1;65230;;;;
2022/05/18 16:13:09;;;;;;;0.8;2.2;;;;;;;-133;15.3;65230;;;;
2022/05/18 16:23:09;;;;;;;0.8;2.2;;;;;;;-133;16;65230;;;;
2022/05/18 16:34:09;;;;;;;0.8;2.2;;;;;;;-133;16.4;65230;;;;
2022/05/18 16:44:09;;;;;;;2.8;5.8;;;;;;;-133;15.1;65230;;;;
2022/05/18 16:55:09;;;;;;;2.8;5.8;;;;;;;-133;15.3;65230;;;;
2022/05/18 17:06:13;;;;;;;2.8;5.8;;;;;;;-133;16.4;65230;;;;
2022/05/18 17:16:09;;;;;;;0.9;4;;;;;;;-133;18.9;65230;;;;
2022/05/18 17:27:16;;;;;;;0.9;4;;;;;;;-133;20.1;65240;;;;
2022/05/18 17:37:09;;;;;;;0.9;4;;;;;;;-133;23.5;65240;;;;
2022/05/18 17:48:10;;;;;;;2.4;6.2;;;;;;;-133;26.7;65240;;;;
2022/05/18 17:58:09;;;;;;;2.4;6.2;;;;;;;-133;30.1;65240;;;;
2022/05/18 18:08:09;;;;;;;2.4;6.2;;;;;;;-133;30.1;65250;;;;
2022/05/18 18:18:09;;;;;;;4.7;12.3;;;;;;;-133;38.8;65250;;;;
2022/05/18 18:29:09;;;;;;;4.7;12.3;;;;;;;-133;44;65250;;;;
2022/05/18 18:39:09;;;;;;;4.7;12.3;;;;;;;-133;45;65260;;;;
2022/05/18 18:49:10;;;;;;;2.8;6.2;;;;;;;-133;44.7;65250;;;;
2022/05/18 18:59:11;;;;;;;2.8;6.2;;;;;;;-133;45.6;65260;;;;
2022/05/18 19:10:09;;;;;;;2.8;6.2;;;;;;;-133;46.1;65260;;;;
2022/05/18 19:20:09;;;;;;;3.2;9.4;;;;;;;-133;47.1;65260;;;;
2022/05/18 19:31:11;;;;;;;3.2;9.4;;;;;;;-133;48.4;65260;;;;
2022/05/18 19:42:09;;;;;;;5.9;11.2;;;;;;;-133;49.6;65260;;;;
2022/05/18 19:53:10;;;;;;;5.9;11.2;;;;;;;-133;52.1;65260;;;;
2022/05/18 20:04:09;;;;;;;5.9;11.2;;;;;;;-133;52.6;65260;;;;
2022/05/18 20:15:09;;;;;;;4.2;7.6;;;;;;;-133;53.3;65260;;;;
2022/05/18 20:25:09;;;;;;;4.2;7.6;;;;;;;-133;55;65260;;;;
2022/05/18 20:36:10;;;;;;;4.2;7.6;;;;;;;-133;58.9;65270;;;;
2022/05/18 20:46:09;;;;;;;4.4;8.7;;;;;;;-133;58.7;65270;;;;
2022/05/18 20:56:09;;;;;;;4.4;8.7;;;;;;;-133;59.5;65270;;;;
2022/05/18 21:07:09;;;;;;;4.4;8.7;;;;;;;-133;62;65280;;;;
2022/05/18 21:18:09;;;;;;;4.7;8.9;;;;;;;-133;64;65270;;;;
2022/05/18 21:28:09;;;;;;;4.7;8.9;;;;;;;-133;65.8;65270;;;;
2022/05/18 21:39:10;;;;;;;4.7;8.9;;;;;;;-133;67.8;65270;;;;
2022/05/18 21:49:09;;;;;;;7.7;12.7;;;;;;;-133;70.2;65270;;;;
2022/05/18 21:59:09;;;;;;;7.7;12.7;;;;;;;-133;75;65270;;;;
2022/05/18 22:10:09;;;;;;;8;13;;;;;;;-133;77.3;65270;;;;
2022/05/18 22:20:09;;;;;;;8;13;;;;;;;-133;76.2;65270;;;;
2022/05/18 22:31:09;;;;;;;8;13;;;;;;;-133;80.4;65270;;;;
2022/05/18 22:41:09;;;;;;;8.1;13.8;;;;;;;-133;81.7;65270;;;;
2022/05/18 22:51:09;;;;;;;8.1;13.8;;;;;;;-133;79.7;65280;;;;
2022/05/18 23:02:09;;;;;;;8.1;13.8;;;;;;;-133;81;65280;;;;
2022/05/18 23:13:09;;;;;;;6.1;10.9;;;;;;;-133;81.4;65270;;;;
2022/05/18 23:23:41;;;;;;;6.1;10.9;;;;;;;-133;84.4;65280;;;;
2022/05/18 23:33:09;;;;;;;6.1;10.9;;;;;;;-133;82.5;65280;;;;
2022/05/18 23:44:09;;;;;;;6.8;14.1;;;;;;;-133;84.6;65280;;;;
2022/05/18 23:54:09;;;;;;;6.8;14.1;;;;;;;-133;85.1;65280;;;;
